Time;durP1;ratioP1;P1;durP2;ratioP2;P2;SDS_P1;SDS_P2;PMS_P1;PMS_P2;Temp;Humidity;BMP_temperature;BMP_pressure;BME280_temperature;BME280_humidity;BME280_pressure;Samples;Min_cycle;Max_cycle;Signal;HPM_P1;HPM_P2
2023/01/20 00:00:42;;;;;;;2.20;1.57;;;;;;;3.49;nan;100754.41;6158921;28;21667;-70
2023/01/20 00:04:03;;;;;;;2.63;2.00;;;;;;;3.25;nan;100762.06;6150854;28;20316;-70
2023/01/20 00:07:25;;;;;;;2.93;1.70;;;;;;;3.11;nan;100761.19;6153747;28;20238;-70
2023/01/20 00:10:46;;;;;;;4.40;2.30;;;;;;;3.27;nan;100766.47;6155061;28;20235;-70
2023/01/20 00:14:09;;;;;;;2.50;1.90;;;;;;;3.20;nan;100758.84;6148696;28;20337;-71
2023/01/20 00:17:30;;;;;;;2.40;1.83;;;;;;;3.34;nan;100760.66;6149324;28;20234;-70
2023/01/20 00:20:51;;;;;;;2.27;2.07;;;;;;;3.48;nan;100759.84;6142026;28;20517;-71
2023/01/20 00:24:14;;;;;;;3.57;1.70;;;;;;;3.17;nan;100772.34;6150512;28;20782;-70
2023/01/20 00:27:34;;;;;;;2.93;2.37;;;;;;;3.35;nan;100777.50;6150689;28;20226;-70
2023/01/20 00:30:55;;;;;;;2.27;2.07;;;;;;;3.09;nan;100774.59;6151030;28;22185;-71
2023/01/20 00:34:16;;;;;;;1.83;1.60;;;;;;;3.12;nan;100782.44;6143484;28;20329;-70
2023/01/20 00:37:37;;;;;;;3.20;2.47;;;;;;;3.19;nan;100783.75;6144909;28;20243;-69
2023/01/20 00:41:00;;;;;;;8.70;2.27;;;;;;;3.44;nan;100788.47;6132382;28;20235;-70
2023/01/20 00:44:20;;;;;;;2.30;1.83;;;;;;;3.16;nan;100793.75;6123510;28;20512;-70
2023/01/20 00:47:41;;;;;;;2.13;1.80;;;;;;;3.25;nan;100804.69;6133576;28;20601;-69
2023/01/20 00:51:03;;;;;;;3.77;2.13;;;;;;;3.21;nan;100802.34;6133939;28;20635;-69
2023/01/20 00:54:24;;;;;;;7.30;3.67;;;;;;;3.57;nan;100808.06;6146497;28;20248;-70
2023/01/20 00:57:46;;;;;;;2.50;2.30;;;;;;;3.30;nan;100815.06;6143328;28;21235;-70
2023/01/20 01:01:07;;;;;;;5.10;2.60;;;;;;;3.27;nan;100817.06;6143083;28;20705;-70
2023/01/20 01:04:28;;;;;;;4.13;3.07;;;;;;;3.16;nan;100826.56;6146251;28;20623;-70
2023/01/20 01:07:49;;;;;;;6.00;2.87;;;;;;;2.98;nan;100832.94;6146630;28;21111;-70
2023/01/20 01:11:11;;;;;;;3.97;3.20;;;;;;;2.95;nan;100837.59;6143954;28;20231;-69
2023/01/20 01:14:33;;;;;;;4.83;2.90;;;;;;;3.06;nan;100838.72;6144689;28;20648;-71
2023/01/20 01:17:56;;;;;;;8.30;3.33;;;;;;;2.93;nan;100843.03;6131138;28;20800;-71
2023/01/20 01:21:17;;;;;;;6.03;4.37;;;;;;;2.94;nan;100850.06;6153801;28;20233;-70
2023/01/20 01:24:37;;;;;;;6.70;4.00;;;;;;;2.76;nan;100847.59;6144221;28;20230;-70
2023/01/20 01:27:58;;;;;;;4.43;4.03;;;;;;;2.95;nan;100857.09;6134433;28;20242;-70
2023/01/20 01:31:21;;;;;;;4.40;3.40;;;;;;;2.83;nan;100854.28;6154335;28;20608;-72
2023/01/20 01:34:42;;;;;;;4.97;4.10;;;;;;;2.98;nan;100866.72;6123184;28;20242;-70
2023/01/20 01:38:03;;;;;;;7.30;4.33;;;;;;;2.95;nan;100869.56;6141097;28;20238;-70
2023/01/20 01:41:24;;;;;;;10.73;4.80;;;;;;;2.90;nan;100871.63;6156913;28;20237;-70
2023/01/20 01:45:19;;;;;;;7.77;4.40;;;;;;;2.92;nan;100875.91;6150842;28;20261;-70
2023/01/20 01:48:45;;;;;;;7.27;5.27;;;;;;;3.11;nan;100879.22;6149689;28;20233;-70
2023/01/20 01:52:09;;;;;;;10.63;6.13;;;;;;;2.93;nan;100879.44;6156653;28;20258;-70
2023/01/20 01:55:34;;;;;;;6.87;5.87;;;;;;;2.76;nan;100877.72;6153727;28;20405;-70
2023/01/20 01:59:00;;;;;;;7.10;5.57;;;;;;;2.91;nan;100886.66;6150371;28;20234;-70
2023/01/20 02:02:21;;;;;;;8.37;5.20;;;;;;;2.96;nan;100893.41;6144589;28;20231;-71
2023/01/20 02:05:45;;;;;;;6.33;4.70;;;;;;;2.98;nan;100888.84;6155822;28;20555;-70
2023/01/20 02:09:06;;;;;;;7.57;4.93;;;;;;;3.08;nan;100898.06;6142343;28;20325;-70
2023/01/20 02:12:29;;;;;;;9.10;6.33;;;;;;;3.05;nan;100903.53;6125938;28;20234;-70
2023/01/20 02:15:56;;;;;;;9.53;7.17;;;;;;;2.89;nan;100915.16;6143351;28;21499;-70
2023/01/20 02:19:51;;;;;;;7.37;6.07;;;;;;;2.80;nan;100910.34;6148182;28;21807;-71
2023/01/20 02:23:25;;;;;;;6.23;5.70;;;;;;;2.69;nan;100918.94;6134469;28;20241;-70
2023/01/20 02:27:00;;;;;;;8.80;5.97;;;;;;;2.79;nan;100920.16;6154949;28;20274;-71
2023/01/20 02:30:47;;;;;;;12.93;6.73;;;;;;;2.93;nan;100919.38;6131299;28;20517;-70
2023/01/20 02:34:16;;;;;;;8.00;5.63;;;;;;;3.08;nan;100930.00;6149308;28;20229;-70
2023/01/20 02:37:46;;;;;;;13.57;6.90;;;;;;;2.74;nan;100939.97;6150179;28;20562;-70
2023/01/20 02:41:12;;;;;;;10.07;6.43;;;;;;;3.18;nan;100939.19;6147641;28;20603;-70
2023/01/20 02:44:40;;;;;;;10.53;8.63;;;;;;;2.89;nan;100947.09;6152856;28;20840;-70
2023/01/20 02:48:05;;;;;;;12.57;7.87;;;;;;;2.92;nan;100957.59;6134247;28;20611;-69
2023/01/20 02:51:33;;;;;;;9.67;7.83;;;;;;;2.95;nan;100952.94;6161423;28;20237;-70
2023/01/20 02:54:58;;;;;;;11.57;7.83;;;;;;;2.99;nan;100954.50;6159146;28;20248;-70
2023/01/20 02:58:25;;;;;;;9.63;7.93;;;;;;;2.72;nan;100964.00;6146632;28;20234;-70
2023/01/20 03:01:49;;;;;;;14.70;9.40;;;;;;;2.62;nan;100965.47;6159181;28;20230;-70
2023/01/20 03:05:15;;;;;;;10.47;9.03;;;;;;;2.69;nan;100956.19;6158259;28;20222;-71
2023/01/20 03:08:40;;;;;;;13.90;8.73;;;;;;;2.64;nan;100968.91;6142956;28;20238;-70
2023/01/20 03:12:09;;;;;;;13.13;8.40;;;;;;;2.78;nan;100957.47;6135222;28;20239;-69
2023/01/20 03:15:34;;;;;;;24.87;11.50;;;;;;;2.46;nan;100966.38;6153732;28;20291;-70
2023/01/20 03:18:55;;;;;;;10.13;7.90;;;;;;;2.56;nan;100980.91;6152028;28;20249;-72
2023/01/20 03:22:16;;;;;;;12.13;10.97;;;;;;;2.40;nan;100971.06;6154794;28;20691;-70
2023/01/20 03:25:40;;;;;;;14.17;10.07;;;;;;;2.55;nan;100973.84;6153784;28;20345;-70
2023/01/20 03:29:06;;;;;;;17.47;12.37;;;;;;;2.58;nan;100981.69;6152001;28;20619;-70
2023/01/20 03:32:27;;;;;;;12.63;9.70;;;;;;;2.41;nan;100978.13;6146535;28;20257;-70
2023/01/20 03:35:49;;;;;;;16.73;12.13;;;;;;;2.70;nan;100979.22;6159779;28;20242;-71
2023/01/20 03:39:10;;;;;;;16.83;9.63;;;;;;;2.43;nan;100991.34;6141779;28;20312;-69
2023/01/20 03:42:39;;;;;;;12.77;9.10;;;;;;;2.29;nan;100993.88;6161605;28;20324;-69
2023/01/20 03:46:04;;;;;;;13.30;9.17;;;;;;;2.48;nan;100986.66;6145647;28;20230;-70
2023/01/20 03:49:29;;;;;;;15.60;11.67;;;;;;;2.32;nan;100999.03;6153424;28;20246;-70
2023/01/20 03:52:54;;;;;;;14.43;9.47;;;;;;;2.31;nan;100994.66;6149828;28;20247;-70
2023/01/20 03:56:21;;;;;;;15.37;10.73;;;;;;;2.39;nan;101001.31;6151974;28;20334;-70
2023/01/20 03:59:47;;;;;;;20.43;11.40;;;;;;;2.54;nan;100990.78;6156752;28;20229;-71
2023/01/20 04:03:13;;;;;;;11.77;8.77;;;;;;;2.25;nan;101009.13;6137892;28;20547;-70
2023/01/20 04:06:35;;;;;;;11.27;8.53;;;;;;;2.29;nan;101012.50;6155244;28;20231;-71
2023/01/20 04:09:58;;;;;;;15.57;10.30;;;;;;;2.12;nan;101024.03;6147902;28;22333;-70
2023/01/20 04:13:19;;;;;;;13.40;10.07;;;;;;;2.43;nan;101025.94;6141856;28;20250;-70
2023/01/20 04:16:58;;;;;;;17.57;10.43;;;;;;;2.34;nan;101026.41;6123160;28;20254;-69
2023/01/20 04:20:19;;;;;;;18.37;11.87;;;;;;;2.38;nan;101027.94;6148617;28;20932;-71
2023/01/20 04:23:43;;;;;;;13.70;9.40;;;;;;;2.25;nan;101030.41;6139003;28;20241;-71
2023/01/20 04:27:04;;;;;;;15.60;12.37;;;;;;;2.14;nan;101045.19;6150064;28;20258;-71
2023/01/20 04:30:25;;;;;;;16.90;12.00;;;;;;;2.37;nan;101042.22;6137071;28;20258;-70
2023/01/20 04:33:48;;;;;;;13.27;10.23;;;;;;;2.24;nan;101057.94;6134459;28;20644;-70
2023/01/20 04:37:09;;;;;;;11.63;8.20;;;;;;;2.24;nan;101057.06;6137408;28;20243;-70
2023/01/20 04:40:30;;;;;;;18.73;11.33;;;;;;;2.30;nan;101065.59;6146307;28;20774;-70
2023/01/20 04:43:51;;;;;;;15.00;8.33;;;;;;;2.10;nan;101072.88;6148529;28;20234;-71
2023/01/20 04:47:12;;;;;;;16.37;10.87;;;;;;;2.31;nan;101074.44;6150938;28;20231;-71
2023/01/20 04:50:38;;;;;;;12.57;9.03;;;;;;;2.19;nan;101077.75;6153541;28;20238;-70
2023/01/20 04:53:59;;;;;;;15.77;10.53;;;;;;;2.44;nan;101087.03;6149307;28;20229;-70
2023/01/20 04:57:20;;;;;;;17.07;10.90;;;;;;;2.10;nan;101080.88;6153931;28;20529;-70
2023/01/20 05:00:41;;;;;;;14.23;8.77;;;;;;;2.24;nan;101094.31;6153543;28;20238;-71
2023/01/20 05:04:02;;;;;;;17.27;10.17;;;;;;;2.09;nan;101095.94;6150736;28;20230;-70
2023/01/20 05:07:25;;;;;;;12.93;8.53;;;;;;;2.15;nan;101092.13;6146835;28;20230;-69
2023/01/20 05:10:46;;;;;;;14.93;9.27;;;;;;;2.26;nan;101101.28;6146085;28;20234;-70
2023/01/20 05:14:07;;;;;;;15.03;9.57;;;;;;;2.17;nan;101114.19;6138245;28;20924;-70
2023/01/20 05:17:27;;;;;;;16.63;10.17;;;;;;;2.24;nan;101105.81;6145480;28;20324;-69
2023/01/20 05:20:49;;;;;;;13.17;8.30;;;;;;;2.04;nan;101115.72;6147932;28;20238;-70
2023/01/20 05:24:12;;;;;;;16.67;9.43;;;;;;;2.27;nan;101126.91;6124294;28;20498;-71
2023/01/20 05:27:34;;;;;;;16.30;9.20;;;;;;;2.24;nan;101115.59;6113400;28;20488;-69
2023/01/20 05:30:55;;;;;;;16.20;8.83;;;;;;;2.17;nan;101124.81;6109354;28;20228;-70
2023/01/20 05:34:16;;;;;;;13.83;8.37;;;;;;;2.16;nan;101125.75;6124965;28;20683;-70
2023/01/20 05:37:37;;;;;;;14.13;8.27;;;;;;;2.19;nan;101131.75;6122150;28;20236;-71
2023/01/20 05:41:03;;;;;;;13.23;8.50;;;;;;;2.31;nan;101132.97;6124219;28;20226;-70
2023/01/20 05:44:24;;;;;;;19.17;9.87;;;;;;;2.65;nan;101140.06;6129832;28;20624;-70
2023/01/20 05:47:44;;;;;;;13.50;8.57;;;;;;;2.59;nan;101143.06;6114105;28;20693;-72
2023/01/20 05:51:07;;;;;;;11.13;5.90;;;;;;;2.19;nan;101152.19;6142684;28;20235;-70
2023/01/20 05:54:27;;;;;;;14.00;9.13;;;;;;;2.15;nan;101154.13;6132041;28;20265;-69
2023/01/20 05:57:50;;;;;;;12.30;8.17;;;;;;;2.36;nan;101163.69;6122906;28;20239;-70
2023/01/20 06:01:13;;;;;;;12.73;9.20;;;;;;;2.51;nan;101154.06;6143049;28;20230;-69
2023/01/20 06:04:34;;;;;;;15.10;8.30;;;;;;;2.25;nan;101165.19;6146011;28;20241;-69
2023/01/20 06:07:55;;;;;;;16.70;9.50;;;;;;;2.52;nan;101176.22;6138646;28;20325;-69
2023/01/20 06:11:16;;;;;;;12.43;7.53;;;;;;;2.23;nan;101183.84;6149323;28;20235;-69
2023/01/20 06:14:39;;;;;;;9.63;7.17;;;;;;;2.09;nan;101191.66;6148374;28;20684;-70
2023/01/20 06:18:00;;;;;;;18.50;9.67;;;;;;;2.49;nan;101195.00;6130819;28;20778;-70
2023/01/20 06:21:20;;;;;;;8.67;6.67;;;;;;;2.20;nan;101199.97;6156144;28;20239;-71
2023/01/20 06:24:41;;;;;;;14.17;8.93;;;;;;;2.68;nan;101209.97;6118235;28;20276;-70
2023/01/20 06:28:03;;;;;;;13.93;10.20;;;;;;;2.72;nan;101223.97;6145891;28;20229;-69
2023/01/20 06:31:27;;;;;;;15.63;9.30;;;;;;;2.23;nan;101226.41;6157950;28;20510;-70
2023/01/20 06:34:48;;;;;;;15.67;8.77;;;;;;;2.60;nan;101228.13;6156902;28;20241;-69
2023/01/20 06:38:08;;;;;;;8.93;6.87;;;;;;;2.35;nan;101239.13;6136904;28;20241;-72
2023/01/20 06:41:29;;;;;;;14.40;8.67;;;;;;;2.64;nan;101229.69;6158820;28;20242;-70
2023/01/20 06:44:50;;;;;;;10.67;7.90;;;;;;;2.35;nan;101240.91;6155998;28;20233;-75
2023/01/20 06:48:13;;;;;;;18.17;10.90;;;;;;;2.24;nan;101244.09;6135867;28;20243;-73
2023/01/20 06:55:11;;;;;;;18.67;9.77;;;;;;;2.41;nan;101246.81;6127725;28;20498;-72
2023/01/20 06:58:33;;;;;;;14.73;9.27;;;;;;;2.26;nan;101265.28;6118623;28;20274;-72
2023/01/20 07:01:54;;;;;;;12.13;7.07;;;;;;;2.35;nan;101264.84;6119603;28;20578;-72
2023/01/20 07:05:16;;;;;;;19.50;8.53;;;;;;;2.50;nan;101268.56;6110750;28;20258;-75
2023/01/20 07:08:40;;;;;;;15.63;8.50;;;;;;;2.46;nan;101285.63;6110949;28;21135;-79
2023/01/20 07:12:00;;;;;;;13.40;9.20;;;;;;;2.52;nan;101277.31;6136420;28;20238;-76
2023/01/20 07:15:21;;;;;;;19.00;11.57;;;;;;;2.71;nan;101288.78;6133240;28;20333;-74
2023/01/20 07:18:42;;;;;;;18.23;9.20;;;;;;;2.63;nan;101290.97;6116565;28;20231;-75
2023/01/20 07:22:05;;;;;;;14.50;8.07;;;;;;;2.31;nan;101301.38;6134090;28;20356;-74
2023/01/20 07:25:25;;;;;;;10.93;7.17;;;;;;;2.61;nan;101298.16;6113058;28;20244;-74
2023/01/20 07:28:47;;;;;;;19.53;8.93;;;;;;;2.69;nan;101304.81;6105633;28;20235;-77
2023/01/20 07:32:08;;;;;;;12.13;7.90;;;;;;;2.95;nan;101314.16;6130463;28;22066;-74
2023/01/20 07:35:29;;;;;;;10.87;9.53;;;;;;;3.04;nan;101319.03;6135674;28;20651;-72
2023/01/20 07:38:53;;;;;;;14.43;10.03;;;;;;;2.97;nan;101326.47;6123942;28;20235;-73
2023/01/20 07:42:13;;;;;;;16.70;9.10;;;;;;;2.29;nan;101340.50;6125922;28;21338;-71
2023/01/20 07:45:34;;;;;;;16.33;9.23;;;;;;;2.91;nan;101340.09;6111090;28;20239;-72
2023/01/20 07:48:55;;;;;;;12.47;9.43;;;;;;;2.74;nan;101355.16;6109770;28;20231;-73
2023/01/20 07:52:16;;;;;;;17.03;8.30;;;;;;;2.60;nan;101363.81;6105463;28;20709;-73
2023/01/20 07:55:38;;;;;;;9.57;8.37;;;;;;;2.40;nan;101366.56;6085832;29;20231;-72
2023/01/20 07:59:00;;;;;;;12.73;8.17;;;;;;;2.94;nan;101379.03;6118379;28;20280;-72
2023/01/20 08:02:21;;;;;;;13.33;6.97;;;;;;;2.85;nan;101374.13;6118674;28;20235;-73
2023/01/20 08:05:42;;;;;;;15.67;7.40;;;;;;;2.72;nan;101370.34;6108747;28;20263;-71
2023/01/20 08:09:02;;;;;;;13.57;7.43;;;;;;;3.11;nan;101381.69;6120260;28;20728;-70
2023/01/20 08:12:24;;;;;;;11.53;7.97;;;;;;;2.80;nan;101387.66;6126900;28;20235;-74
2023/01/20 08:15:45;;;;;;;18.00;9.60;;;;;;;2.39;nan;101402.09;6114571;28;20256;-72
2023/01/20 08:19:06;;;;;;;15.30;8.67;;;;;;;2.41;nan;101410.84;6111915;28;20234;-73
2023/01/20 08:22:27;;;;;;;21.30;7.53;;;;;;;2.82;nan;101401.75;6121455;28;20235;-73
2023/01/20 08:25:50;;;;;;;9.60;8.77;;;;;;;2.75;nan;101411.00;6128624;28;20703;-70
2023/01/20 08:29:13;;;;;;;15.10;8.57;;;;;;;3.00;nan;101416.00;6123288;28;20254;-73
2023/01/20 08:32:34;;;;;;;12.83;7.37;;;;;;;2.94;nan;101422.47;6120941;28;20239;-72
2023/01/20 08:35:58;;;;;;;12.47;6.73;;;;;;;2.55;nan;101420.84;6110605;28;20235;-73
2023/01/20 08:39:19;;;;;;;10.33;8.33;;;;;;;2.61;nan;101423.25;6122493;28;20511;-71
2023/01/20 08:42:40;;;;;;;12.20;8.03;;;;;;;2.92;nan;101428.81;6116136;28;20235;-71
2023/01/20 08:46:06;;;;;;;12.93;6.83;;;;;;;2.99;nan;101428.44;6122308;28;20337;-72
2023/01/20 08:49:28;;;;;;;9.33;8.33;;;;;;;2.58;nan;101436.69;6124044;28;20234;-71
2023/01/20 08:52:49;;;;;;;13.63;8.70;;;;;;;2.97;nan;101438.31;6125216;28;20660;-71
2023/01/20 08:56:11;;;;;;;9.73;5.33;;;;;;;2.82;nan;101443.47;6112430;28;20257;-71
2023/01/20 08:59:32;;;;;;;10.83;7.00;;;;;;;2.64;nan;101455.88;6110811;28;20226;-73
2023/01/20 09:02:54;;;;;;;11.07;7.27;;;;;;;2.59;nan;101459.72;6095618;28;20232;-72
2023/01/20 09:06:15;;;;;;;12.90;7.33;;;;;;;2.92;nan;101461.59;6120770;28;20223;-71
2023/01/20 09:09:36;;;;;;;13.87;6.90;;;;;;;2.61;nan;101457.84;6114690;28;20628;-73
2023/01/20 09:12:57;;;;;;;10.00;6.87;;;;;;;2.68;nan;101473.44;6108450;28;20822;-71
2023/01/20 09:16:19;;;;;;;8.30;5.90;;;;;;;2.76;nan;101476.59;6125832;28;20235;-73
2023/01/20 09:19:41;;;;;;;9.20;7.20;;;;;;;3.03;nan;101477.06;6097816;28;20239;-72
2023/01/20 09:23:02;;;;;;;10.03;7.53;;;;;;;2.71;nan;101485.75;6087865;28;20259;-73
2023/01/20 09:26:24;;;;;;;9.33;6.87;;;;;;;2.69;nan;101483.13;6113990;28;20633;-73
2023/01/20 09:29:45;;;;;;;13.40;8.60;;;;;;;2.83;nan;101494.00;6098730;28;20242;-72
2023/01/20 09:33:06;;;;;;;12.93;7.97;;;;;;;3.07;nan;101498.16;6088144;28;21157;-73
2023/01/20 09:36:29;;;;;;;18.93;9.47;;;;;;;3.12;nan;101488.16;6106109;28;20239;-73
2023/01/20 09:43:54;;;;;;;13.83;7.93;;;;;;;2.90;nan;101519.41;6103326;28;20239;-73
2023/01/20 09:47:25;;;;;;;11.43;6.70;;;;;;;2.72;nan;101520.25;6096339;28;20318;-74
2023/01/20 09:54:41;;;;;;;16.33;8.27;;;;;;;3.13;nan;101532.50;6096652;28;20655;-73
2023/01/20 09:58:19;;;;;;;9.70;7.20;;;;;;;3.21;nan;101524.16;6083232;28;20231;-73
2023/01/20 10:01:44;;;;;;;12.43;7.90;;;;;;;3.73;nan;101527.78;6099243;28;20283;-72
2023/01/20 10:05:12;;;;;;;14.87;6.87;;;;;;;2.97;nan;101541.28;6103550;28;20238;-73
2023/01/20 10:08:38;;;;;;;11.93;8.90;;;;;;;3.09;nan;101541.56;6089853;28;20243;-73
2023/01/20 10:12:05;;;;;;;10.83;7.57;;;;;;;3.09;nan;101536.22;6102881;28;20270;-72
2023/01/20 10:15:29;;;;;;;10.97;7.33;;;;;;;3.21;nan;101548.97;6094500;28;20240;-76
2023/01/20 10:18:56;;;;;;;11.67;7.57;;;;;;;3.78;nan;101547.94;6097656;28;20557;-73
2023/01/20 10:22:23;;;;;;;13.80;7.57;;;;;;;3.76;nan;101546.28;6101642;28;20236;-73
2023/01/20 10:25:49;;;;;;;11.43;8.07;;;;;;;5.60;nan;101550.47;6103191;28;20322;-73
2023/01/20 10:29:20;;;;;;;15.20;7.87;;;;;;;6.55;nan;101537.66;6100156;28;20829;-73
2023/01/20 10:32:47;;;;;;;15.03;6.17;;;;;;;9.52;nan;101520.78;6091099;28;20252;-75
2023/01/20 10:36:14;;;;;;;11.47;7.30;;;;;;;9.44;nan;101520.47;6098747;29;20248;-72
2023/01/20 10:39:42;;;;;;;10.87;5.97;;;;;;;8.72;nan;101521.25;6105876;28;20287;-71
2023/01/20 10:43:10;;;;;;;11.10;6.20;;;;;;;10.28;nan;101515.84;6090528;28;20235;-71
2023/01/20 10:46:50;;;;;;;11.87;7.97;;;;;;;14.01;nan;101520.69;6111421;28;20242;-73
2023/01/20 10:50:30;;;;;;;11.60;6.03;;;;;;;15.81;nan;101521.09;6102049;28;21883;-71
2023/01/20 10:54:03;;;;;;;9.90;6.13;;;;;;;10.51;nan;101534.78;6099300;28;20238;-72
2023/01/20 10:57:25;;;;;;;7.10;5.40;;;;;;;10.30;nan;101535.47;6127786;28;20231;-72
2023/01/20 11:00:46;;;;;;;11.77;6.83;;;;;;;9.57;nan;101529.34;6121861;28;20613;-73
2023/01/20 11:04:16;;;;;;;9.67;6.03;;;;;;;12.15;nan;101529.28;6121493;28;20231;-73
2023/01/20 11:07:37;;;;;;;7.73;6.20;;;;;;;12.15;nan;101529.28;6125462;28;20234;-74
2023/01/20 11:11:00;;;;;;;13.40;5.67;;;;;;;12.71;nan;101543.34;6120688;28;20274;-72
2023/01/20 11:14:22;;;;;;;11.03;6.70;;;;;;;13.37;nan;101542.81;6119951;28;20251;-72
2023/01/20 11:17:43;;;;;;;9.70;4.97;;;;;;;11.20;nan;101546.22;6132212;28;20231;-69
2023/01/20 11:21:08;;;;;;;9.03;5.90;;;;;;;10.66;nan;101555.16;6129187;28;20239;-72
2023/01/20 11:24:41;;;;;;;7.67;5.80;;;;;;;8.57;nan;101564.50;6127382;28;20238;-72
2023/01/20 11:28:04;;;;;;;12.23;6.33;;;;;;;9.51;nan;101564.78;6110171;28;20231;-74
2023/01/20 11:31:41;;;;;;;12.13;6.53;;;;;;;12.29;nan;101555.13;6115014;28;20301;-70
2023/01/20 11:35:18;;;;;;;14.60;7.33;;;;;;;16.36;nan;101550.88;6105449;28;20255;-73
2023/01/20 11:38:45;;;;;;;14.60;6.57;;;;;;;12.22;nan;101567.47;6098190;28;20259;-74
2023/01/20 11:42:13;;;;;;;6.83;4.83;;;;;;;11.49;nan;101570.00;6128396;28;20238;-74
2023/01/20 11:45:35;;;;;;;7.17;5.87;;;;;;;9.15;nan;101572.00;6118807;28;20230;-72
2023/01/20 11:49:26;;;;;;;9.30;6.50;;;;;;;8.57;nan;101569.88;6110521;28;20235;-72
2023/01/20 11:52:47;;;;;;;7.93;6.73;;;;;;;13.48;nan;101558.09;6083098;29;20239;-72
2023/01/20 11:56:18;;;;;;;10.00;5.73;;;;;;;14.91;nan;101557.28;6104646;28;20286;-73
2023/01/20 11:59:48;;;;;;;6.90;5.73;;;;;;;12.43;nan;101577.31;6107851;28;20696;-73
2023/01/20 12:03:31;;;;;;;6.67;6.00;;;;;;;16.04;nan;101573.19;6079650;28;20224;-73
2023/01/20 12:07:00;;;;;;;7.57;5.37;;;;;;;18.31;nan;101564.31;6110623;28;20228;-73
2023/01/20 12:10:25;;;;;;;9.77;6.17;;;;;;;18.51;nan;101570.34;6123396;28;20239;-72
2023/01/20 12:17:45;;;;;;;7.05;5.55;;;;;;;16.83;nan;101590.44;6111065;28;20610;-73
2023/01/20 12:21:17;;;;;;;7.70;5.23;;;;;;;14.53;nan;101598.94;6125866;28;20827;-74
2023/01/20 12:28:31;;;;;;;6.20;4.93;;;;;;;10.83;nan;101614.88;6090578;28;20244;-73
2023/01/20 12:31:53;;;;;;;8.13;5.83;;;;;;;14.41;nan;101600.09;6100736;28;21294;-71
2023/01/20 12:35:15;;;;;;;5.90;4.47;;;;;;;13.17;nan;101610.56;6107658;28;20258;-74
2023/01/20 12:38:45;;;;;;;6.10;5.50;;;;;;;12.06;nan;101616.53;6079966;28;21873;-71
2023/01/20 12:42:47;;;;;;;10.23;6.57;;;;;;;13.05;nan;101617.94;6098408;29;20624;-72
2023/01/20 12:46:25;;;;;;;10.67;6.70;;;;;;;13.94;nan;101615.28;6066753;28;20330;-76
2023/01/20 12:50:09;;;;;;;7.17;5.60;;;;;;;11.06;nan;101627.41;6116421;28;20325;-74
2023/01/20 12:53:56;;;;;;;8.47;5.70;;;;;;;9.46;nan;101636.06;6110054;28;20309;-74
2023/01/20 12:57:42;;;;;;;8.27;5.63;;;;;;;10.76;nan;101642.44;6112895;28;20235;-73
2023/01/20 13:01:31;;;;;;;9.43;5.97;;;;;;;8.94;nan;101644.28;6096923;28;20496;-74
2023/01/20 13:05:16;;;;;;;7.53;5.50;;;;;;;7.91;nan;101655.78;6116078;28;20265;-75
2023/01/20 13:08:45;;;;;;;9.67;5.80;;;;;;;8.10;nan;101659.00;6112072;28;20692;-74
2023/01/20 13:12:21;;;;;;;8.00;5.20;;;;;;;8.77;nan;101672.34;6123091;28;20552;-74
2023/01/20 13:15:47;;;;;;;10.47;6.17;;;;;;;10.02;nan;101659.72;6113807;28;20235;-71
2023/01/20 13:19:13;;;;;;;7.07;6.03;;;;;;;7.27;nan;101677.84;6097236;28;20662;-74
2023/01/20 13:22:36;;;;;;;11.77;7.23;;;;;;;6.56;nan;101686.69;6109608;28;20231;-71
2023/01/20 13:26:00;;;;;;;10.40;5.23;;;;;;;7.88;nan;101686.41;6111714;28;20608;-74
2023/01/20 13:29:22;;;;;;;8.30;6.20;;;;;;;8.39;nan;101681.25;6108485;28;21074;-73
2023/01/20 13:32:44;;;;;;;5.57;4.43;;;;;;;7.21;nan;101687.13;6097325;29;20358;-77
2023/01/20 13:36:24;;;;;;;9.73;6.73;;;;;;;7.75;nan;101684.59;6122656;28;20246;-74
2023/01/20 13:39:46;;;;;;;8.90;6.70;;;;;;;8.54;nan;101693.69;6113617;28;20242;-71
2023/01/20 13:43:45;;;;;;;7.30;5.83;;;;;;;8.66;nan;101698.22;6106566;28;20325;-71
2023/01/20 13:47:08;;;;;;;7.40;5.13;;;;;;;7.65;nan;101699.56;6105643;28;20242;-71
2023/01/20 13:50:32;;;;;;;10.37;7.60;;;;;;;7.85;nan;101708.06;6124700;28;20243;-69
2023/01/20 13:53:53;;;;;;;9.83;6.37;;;;;;;10.73;nan;101702.88;6115454;28;20242;-70
2023/01/20 13:57:45;;;;;;;12.83;5.70;;;;;;;9.93;nan;101713.41;6113552;28;20232;-73
2023/01/20 14:01:12;;;;;;;8.23;5.93;;;;;;;7.50;nan;101730.91;6117258;28;20560;-71
2023/01/20 14:04:33;;;;;;;13.63;6.90;;;;;;;8.18;nan;101734.53;6111879;28;20601;-72
2023/01/20 14:07:55;;;;;;;10.10;5.80;;;;;;;8.79;nan;101737.63;6121908;28;20680;-71
2023/01/20 14:11:20;;;;;;;7.63;6.30;;;;;;;8.77;nan;101741.38;6127811;28;21329;-72
2023/01/20 14:14:46;;;;;;;10.60;6.77;;;;;;;7.13;nan;101755.59;6107532;28;20644;-72
2023/01/20 14:18:15;;;;;;;10.70;6.00;;;;;;;7.64;nan;101751.50;6112599;28;20231;-72
2023/01/20 14:21:40;;;;;;;11.43;7.30;;;;;;;6.52;nan;101765.50;6108445;28;20239;-72
2023/01/20 14:25:02;;;;;;;7.90;5.83;;;;;;;7.60;nan;101761.56;6098235;28;20299;-71
2023/01/20 14:28:23;;;;;;;9.60;6.03;;;;;;;6.92;nan;101772.94;6092893;28;20243;-72
2023/01/20 14:31:45;;;;;;;9.77;6.70;;;;;;;6.57;nan;101783.03;6102982;28;20247;-72
2023/01/20 14:35:14;;;;;;;10.43;7.03;;;;;;;6.42;nan;101787.44;6110177;28;20858;-72
2023/01/20 14:38:35;;;;;;;8.80;4.77;;;;;;;6.75;nan;101792.69;6102997;28;20242;-70
2023/01/20 14:41:57;;;;;;;6.57;5.93;;;;;;;7.23;nan;101800.53;6112917;28;20916;-70
2023/01/20 14:45:20;;;;;;;8.00;5.90;;;;;;;7.62;nan;101805.25;6105992;28;20232;-70
2023/01/20 14:48:44;;;;;;;5.57;3.53;;;;;;;7.43;nan;101809.16;6108520;28;20564;-71
2023/01/20 14:52:08;;;;;;;9.20;6.63;;;;;;;6.27;nan;101819.59;6112003;28;20232;-71
2023/01/20 14:55:32;;;;;;;5.50;4.97;;;;;;;6.85;nan;101822.47;6117668;28;20232;-71
2023/01/20 14:58:57;;;;;;;16.43;6.20;;;;;;;6.54;nan;101825.19;6124821;28;20234;-71
2023/01/20 15:02:29;;;;;;;10.33;6.17;;;;;;;6.38;nan;101826.06;6135821;28;20297;-71
2023/01/20 15:05:57;;;;;;;10.23;7.53;;;;;;;7.04;nan;101839.22;6141735;28;20238;-71
2023/01/20 15:09:26;;;;;;;34.17;23.17;;;;;;;7.65;nan;101847.16;6126668;28;20286;-71
2023/01/20 15:12:54;;;;;;;16.30;8.57;;;;;;;7.20;nan;101851.63;6132976;28;20234;-71
2023/01/20 15:16:17;;;;;;;11.53;7.27;;;;;;;7.22;nan;101863.13;6110090;28;20646;-70
2023/01/20 15:19:44;;;;;;;9.23;7.87;;;;;;;7.19;nan;101866.00;6112350;28;20247;-71
2023/01/20 15:23:14;;;;;;;44.07;27.57;;;;;;;7.45;nan;101868.97;6102468;28;20250;-71
2023/01/20 15:26:37;;;;;;;37.13;24.97;;;;;;;7.63;nan;101876.78;6116425;28;20315;-69
2023/01/20 15:30:04;;;;;;;33.93;21.20;;;;;;;7.75;nan;101881.38;6133011;28;20230;-71
2023/01/20 15:33:25;;;;;;;40.63;25.37;;;;;;;7.80;nan;101884.63;6128390;28;20238;-70
2023/01/20 15:36:47;;;;;;;37.57;23.40;;;;;;;7.88;nan;101901.16;6135863;28;20323;-71
2023/01/20 15:40:16;;;;;;;25.47;16.43;;;;;;;7.83;nan;101905.94;6111921;28;20682;-70
2023/01/20 15:43:39;;;;;;;38.30;21.13;;;;;;;7.87;nan;101914.66;6098107;28;20241;-71
2023/01/20 15:47:00;;;;;;;40.47;23.60;;;;;;;7.71;nan;101914.72;6083106;28;20240;-72
2023/01/20 15:50:23;;;;;;;28.07;16.70;;;;;;;7.69;nan;101921.16;6084939;28;20259;-73
2023/01/20 15:53:45;;;;;;;17.87;14.57;;;;;;;7.80;nan;101930.25;6075592;28;22992;-71
2023/01/20 15:57:12;;;;;;;22.60;12.13;;;;;;;7.69;nan;101927.38;6102252;28;20243;-72
2023/01/20 16:00:33;;;;;;;11.03;5.70;;;;;;;7.79;nan;101938.41;6104637;28;20243;-74
2023/01/20 16:03:55;;;;;;;9.80;6.30;;;;;;;7.76;nan;101944.81;6098325;28;20393;-73
2023/01/20 16:07:18;;;;;;;8.07;5.57;;;;;;;7.83;nan;101950.69;6096053;28;20228;-75
2023/01/20 16:10:39;;;;;;;7.80;5.47;;;;;;;7.71;nan;101957.69;6104956;28;20334;-72
2023/01/20 16:14:01;;;;;;;28.33;19.83;;;;;;;7.56;nan;101971.13;6108462;28;20271;-72
2023/01/20 16:17:24;;;;;;;19.97;14.10;;;;;;;7.40;nan;101973.84;6113385;28;20514;-71
2023/01/20 16:20:48;;;;;;;16.20;12.93;;;;;;;6.86;nan;101983.19;6109457;28;20330;-71
2023/01/20 16:24:09;;;;;;;19.40;13.03;;;;;;;6.66;nan;101993.28;6102374;28;20239;-71
2023/01/20 16:27:30;;;;;;;30.03;15.13;;;;;;;6.81;nan;102005.84;6122859;28;20251;-71
2023/01/20 16:30:55;;;;;;;26.63;16.10;;;;;;;6.98;nan;102012.00;6126451;28;20605;-70
2023/01/20 16:34:16;;;;;;;10.00;8.73;;;;;;;6.88;nan;102020.66;6131197;28;20230;-72
2023/01/20 16:37:37;;;;;;;11.37;6.90;;;;;;;7.14;nan;102017.38;6122783;28;20243;-72